Time;durP1;ratioP1;P1;durP2;ratioP2;P2;SDS_P1;SDS_P2;PMS_P1;PMS_P2;Temp;Humidity;BMP_temperature;BMP_pressure;BME280_temperature;BME280_humidity;BME280_pressure;Samples;Min_cycle;Max_cycle;Signal;HPM_P1;HPM_P2
2023/11/21 00:02:20;;;;;;;7.97;2.83;;;9.00;69.80;;;;;;5137166;27;20223;-89
2023/11/21 00:04:47;;;;;;;8.10;2.38;;;9.00;69.80;;;;;;5137897;27;20208;-90
2023/11/21 00:07:15;;;;;;;6.18;2.80;;;8.90;69.70;;;;;;5137911;27;20534;-90
2023/11/21 00:09:43;;;;;;;5.20;2.20;;;8.90;69.80;;;;;;5137775;27;20184;-90
2023/11/21 00:12:10;;;;;;;9.60;2.10;;;8.90;69.70;;;;;;5137758;27;20223;-89
2023/11/21 00:14:38;;;;;;;9.85;3.10;;;8.80;69.90;;;;;;5137796;27;20254;-89
2023/11/21 00:17:05;;;;;;;5.88;1.90;;;8.80;70.10;;;;;;5137697;27;20214;-89
2023/11/21 00:19:34;;;;;;;8.82;2.13;;;8.70;70.40;;;;;;5137567;27;20223;-89
2023/11/21 00:22:01;;;;;;;4.15;1.90;;;8.70;70.70;;;;;;5137512;27;20188;-89
2023/11/21 00:24:28;;;;;;;3.47;1.52;;;8.70;71.30;;;;;;5137140;27;20259;-89
2023/11/21 00:26:55;;;;;;;2.92;1.48;;;8.70;71.10;;;;;;5137488;27;20595;-89
2023/11/21 00:29:22;;;;;;;6.38;2.10;;;8.70;71.40;;;;;;5137112;27;20691;-90
2023/11/21 00:31:49;;;;;;;6.05;1.60;;;8.70;71.10;;;;;;5137463;27;20195;-89
2023/11/21 00:34:16;;;;;;;7.38;2.35;;;8.60;71.60;;;;;;5137263;27;20184;-90
2023/11/21 00:36:45;;;;;;;6.90;2.50;;;8.60;72.00;;;;;;5137310;27;20219;-89
2023/11/21 00:39:12;;;;;;;3.72;2.10;;;8.60;72.50;;;;;;5137234;27;20215;-89
2023/11/21 00:41:39;;;;;;;5.25;1.77;;;8.60;73.00;;;;;;5137166;27;20276;-90
2023/11/21 00:44:06;;;;;;;6.82;2.17;;;8.60;73.10;;;;;;5137195;27;20184;-90
2023/11/21 00:46:33;;;;;;;4.38;1.92;;;8.70;73.20;;;;;;5137083;27;20261;-89
2023/11/21 00:49:00;;;;;;;8.50;2.40;;;8.60;73.00;;;;;;5136691;27;20192;-90
2023/11/21 00:51:27;;;;;;;6.13;2.95;;;8.60;73.30;;;;;;5137002;27;20230;-89
2023/11/21 00:53:56;;;;;;;5.43;2.08;;;8.60;73.40;;;;;;5136610;27;20698;-90
2023/11/21 00:56:24;;;;;;;10.45;2.33;;;8.60;73.50;;;;;;5136131;27;20634;-90
2023/11/21 00:58:52;;;;;;;9.10;2.65;;;8.50;73.60;;;;;;5136490;27;20239;-90
2023/11/21 01:01:19;;;;;;;7.28;2.53;;;8.50;74.10;;;;;;5136555;27;20188;-90
2023/11/21 01:03:47;;;;;;;8.73;2.33;;;8.60;74.40;;;;;;5137030;27;20578;-91
2023/11/21 01:06:14;;;;;;;7.47;2.95;;;8.50;74.60;;;;;;5136849;27;20195;-90
2023/11/21 01:08:41;;;;;;;6.03;2.33;;;8.50;74.60;;;;;;5136233;27;20231;-91
2023/11/21 01:11:12;;;;;;;7.13;3.55;;;8.50;74.70;;;;;;5136648;27;20216;-91
2023/11/21 01:13:39;;;;;;;7.18;2.70;;;8.50;74.50;;;;;;5136757;27;20179;-91
2023/11/21 01:16:07;;;;;;;7.10;2.10;;;8.40;74.90;;;;;;5136216;27;20184;-91
2023/11/21 01:18:34;;;;;;;8.52;2.55;;;8.40;75.30;;;;;;5136099;27;20204;-90
2023/11/21 01:21:01;;;;;;;6.13;2.25;;;8.40;75.00;;;;;;5136352;27;20184;-91
2023/11/21 01:23:28;;;;;;;7.93;2.40;;;8.30;75.20;;;;;;5136339;27;20220;-90
2023/11/21 01:25:58;;;;;;;10.13;2.65;;;8.30;75.00;;;;;;5136343;27;20242;-91
2023/11/21 01:28:26;;;;;;;5.70;1.98;;;8.20;75.20;;;;;;5136050;27;20622;-90
2023/11/21 01:30:56;;;;;;;5.75;1.92;;;8.10;75.70;;;;;;5135846;27;20234;-90
2023/11/21 01:33:24;;;;;;;6.55;2.55;;;8.10;76.00;;;;;;5136446;27;20191;-89
2023/11/21 01:35:54;;;;;;;5.85;2.15;;;8.00;76.10;;;;;;5135726;27;20184;-89
2023/11/21 01:38:22;;;;;;;8.63;2.58;;;8.00;76.40;;;;;;5135946;27;20215;-89
2023/11/21 01:40:49;;;;;;;13.20;2.20;;;8.00;76.70;;;;;;5135683;27;20223;-91
2023/11/21 01:43:16;;;;;;;5.72;2.17;;;8.00;76.60;;;;;;5135950;27;20180;-90
2023/11/21 01:45:46;;;;;;;7.22;3.10;;;8.00;77.00;;;;;;5135650;27;20304;-89
2023/11/21 01:48:14;;;;;;;8.70;3.20;;;8.00;77.20;;;;;;5135975;27;20230;-90
2023/11/21 01:50:41;;;;;;;13.88;3.33;;;8.10;77.20;;;;;;5135472;27;20219;-91
2023/11/21 01:53:09;;;;;;;5.55;2.70;;;8.10;77.00;;;;;;5135301;27;20642;-91
2023/11/21 01:55:36;;;;;;;3.75;1.85;;;8.20;77.10;;;;;;5135427;27;20184;-90
2023/11/21 01:58:03;;;;;;;6.10;2.40;;;8.20;76.90;;;;;;5135613;27;20300;-91
2023/11/21 02:00:31;;;;;;;6.15;2.65;;;8.30;76.90;;;;;;5135596;27;20276;-90
2023/11/21 02:02:59;;;;;;;3.70;1.98;;;8.20;77.00;;;;;;5135287;27;20233;-89
2023/11/21 02:05:26;;;;;;;6.65;2.03;;;8.30;77.30;;;;;;5135161;27;20693;-89
2023/11/21 02:07:53;;;;;;;11.18;3.10;;;8.30;77.50;;;;;;5134677;27;20198;-89
2023/11/21 02:10:22;;;;;;;10.13;2.80;;;8.40;77.10;;;;;;5135260;27;20233;-90
2023/11/21 02:12:51;;;;;;;7.10;2.83;;;8.40;76.80;;;;;;5135361;27;20192;-89
2023/11/21 02:15:20;;;;;;;7.20;1.98;;;8.40;76.70;;;;;;5135427;27;20279;-89
2023/11/21 02:17:50;;;;;;;6.60;2.30;;;8.40;76.50;;;;;;5135260;27;20208;-89
2023/11/21 02:20:19;;;;;;;7.05;1.85;;;8.40;76.20;;;;;;5135596;27;20229;-89
2023/11/21 02:22:52;;;;;;;3.70;1.40;;;8.40;75.60;;;;;;5135163;27;20583;-90
2023/11/21 02:25:19;;;;;;;4.97;1.60;;;8.50;75.40;;;;;;5135332;27;20533;-89
2023/11/21 02:27:48;;;;;;;4.30;2.13;;;8.50;74.60;;;;;;5135387;27;20219;-89
2023/11/21 02:30:16;;;;;;;7.88;2.03;;;8.50;74.50;;;;;;5134914;27;20529;-89
2023/11/21 02:32:43;;;;;;;4.70;1.75;;;8.60;74.30;;;;;;5135180;27;20191;-88
2023/11/21 02:35:12;;;;;;;3.10;1.13;;;8.70;73.60;;;;;;5134802;27;20240;-89
2023/11/21 02:37:40;;;;;;;3.08;1.40;;;8.70;73.50;;;;;;5134617;27;20211;-90
2023/11/21 02:40:12;;;;;;;7.38;1.40;;;8.80;73.40;;;;;;5135179;27;20584;-89
2023/11/21 02:42:40;;;;;;;4.85;1.50;;;8.80;72.90;;;;;;5135096;27;20173;-89
2023/11/21 02:45:09;;;;;;;5.70;1.30;;;8.90;72.60;;;;;;5135066;27;20216;-89
2023/11/21 02:47:36;;;;;;;4.80;1.55;;;8.90;72.60;;;;;;5135013;27;20218;-89
2023/11/21 02:50:03;;;;;;;7.75;1.98;;;9.00;72.90;;;;;;5134536;27;20227;-90
2023/11/21 02:52:33;;;;;;;3.33;1.42;;;9.00;72.40;;;;;;5134866;27;20256;-89
2023/11/21 02:55:00;;;;;;;3.88;1.50;;;9.00;71.70;;;;;;5134793;27;20287;-89
2023/11/21 02:57:28;;;;;;;4.32;1.45;;;9.10;71.40;;;;;;5134737;27;20266;-90
2023/11/21 02:59:55;;;;;;;3.70;1.45;;;9.10;71.10;;;;;;5134795;28;20215;-90
2023/11/21 03:02:23;;;;;;;3.63;1.65;;;9.10;71.40;;;;;;5134765;28;20226;-90
2023/11/21 03:04:50;;;;;;;2.83;1.52;;;9.10;71.80;;;;;;5134712;28;20231;-89
2023/11/21 03:07:19;;;;;;;4.32;1.30;;;9.10;72.40;;;;;;5134723;28;20243;-89
2023/11/21 03:09:46;;;;;;;5.13;1.65;;;9.10;72.80;;;;;;5134634;28;20184;-90
2023/11/21 03:12:13;;;;;;;4.00;1.63;;;9.20;72.60;;;;;;5134595;28;20180;-89
2023/11/21 03:14:41;;;;;;;3.95;1.92;;;9.10;72.40;;;;;;5134537;28;20597;-89
2023/11/21 03:17:08;;;;;;;4.00;1.52;;;9.10;72.70;;;;;;5134503;28;20219;-89
2023/11/21 03:19:35;;;;;;;6.38;1.35;;;9.10;72.90;;;;;;5135995;27;20736;-90
2023/11/21 03:22:04;;;;;;;4.45;1.60;;;9.10;73.20;;;;;;5138942;27;20188;-89
2023/11/21 03:24:31;;;;;;;5.38;1.90;;;9.10;73.60;;;;;;5138940;27;20188;-90
2023/11/21 03:26:58;;;;;;;8.13;1.65;;;9.10;74.00;;;;;;5138407;27;20233;-90
2023/11/21 03:29:25;;;;;;;4.13;1.30;;;9.00;74.30;;;;;;5138709;27;20219;-90
2023/11/21 03:31:53;;;;;;;4.82;1.98;;;9.10;74.70;;;;;;5138234;27;20227;-89
2023/11/21 03:34:26;;;;;;;4.15;1.50;;;9.10;74.80;;;;;;5138543;27;20188;-89
2023/11/21 03:36:53;;;;;;;6.15;1.50;;;9.10;74.90;;;;;;5138597;27;20601;-90
2023/11/21 03:39:21;;;;;;;4.75;1.50;;;9.10;75.10;;;;;;5138219;27;20216;-89
2023/11/21 03:41:49;;;;;;;4.82;1.30;;;9.10;75.30;;;;;;5138189;27;20191;-90
2023/11/21 03:44:17;;;;;;;5.88;1.60;;;9.10;75.30;;;;;;5138378;27;20180;-89
2023/11/21 03:46:44;;;;;;;4.28;1.40;;;9.10;75.60;;;;;;5137918;27;20216;-90
2023/11/21 03:49:13;;;;;;;2.53;1.23;;;9.10;75.60;;;;;;5137971;27;20213;-89
2023/11/21 03:51:40;;;;;;;4.63;1.55;;;9.10;75.60;;;;;;5137877;27;20695;-91
2023/11/21 03:54:07;;;;;;;3.80;1.35;;;9.10;75.70;;;;;;5138103;27;20215;-89
2023/11/21 03:56:34;;;;;;;3.60;1.55;;;9.20;75.80;;;;;;5137925;27;20642;-90
2023/11/21 03:59:01;;;;;;;3.72;1.90;;;9.20;75.60;;;;;;5137583;27;20215;-91
2023/11/21 04:01:28;;;;;;;3.60;1.70;;;9.20;75.80;;;;;;5138073;27;20216;-90
2023/11/21 04:03:55;;;;;;;3.13;1.25;;;9.20;75.80;;;;;;5138108;27;20261;-89
2023/11/21 04:06:23;;;;;;;2.60;1.00;;;9.20;75.70;;;;;;5137577;27;20638;-89
2023/11/21 04:08:50;;;;;;;3.95;1.70;;;9.20;75.80;;;;;;5137423;27;20665;-89
2023/11/21 04:11:18;;;;;;;2.28;1.20;;;9.20;75.90;;;;;;5137990;27;20215;-90
2023/11/21 04:13:46;;;;;;;6.47;1.95;;;9.20;75.60;;;;;;5137758;27;20188;-89
2023/11/21 04:16:13;;;;;;;4.03;1.60;;;9.20;75.50;;;;;;5137765;27;20249;-89
2023/11/21 04:18:40;;;;;;;4.45;1.80;;;9.20;75.40;;;;;;5137580;27;20258;-90
2023/11/21 04:21:08;;;;;;;8.43;1.90;;;9.20;75.50;;;;;;5137649;27;20530;-90
2023/11/21 04:23:37;;;;;;;5.68;1.52;;;9.10;75.70;;;;;;5137459;27;20272;-90
2023/11/21 04:26:04;;;;;;;2.85;1.58;;;9.20;75.80;;;;;;5137740;27;20215;-90
2023/11/21 04:28:31;;;;;;;5.63;2.55;;;9.20;75.80;;;;;;5137540;27;20275;-90
2023/11/21 04:30:58;;;;;;;3.53;1.67;;;9.10;75.30;;;;;;5136304;27;20279;-90
2023/11/21 04:33:25;;;;;;;3.60;1.88;;;9.10;75.20;;;;;;5137325;27;20237;-90
2023/11/21 04:35:52;;;;;;;2.83;1.55;;;9.20;75.20;;;;;;5137150;27;20630;-90
2023/11/21 04:38:20;;;;;;;4.25;1.80;;;9.20;75.50;;;;;;5137214;27;20243;-89
2023/11/21 04:40:48;;;;;;;2.58;1.40;;;9.10;75.50;;;;;;5137081;27;20271;-90
2023/11/21 04:43:15;;;;;;;6.93;1.88;;;9.10;75.90;;;;;;5136946;27;20231;-89
2023/11/21 04:45:42;;;;;;;6.70;2.35;;;9.10;76.50;;;;;;5136905;27;20212;-89
2023/11/21 04:48:09;;;;;;;7.13;2.03;;;9.10;76.70;;;;;;5137253;27;20580;-89
2023/11/21 04:50:36;;;;;;;5.53;1.70;;;9.10;77.20;;;;;;5137200;27;20200;-89
2023/11/21 04:53:03;;;;;;;2.90;1.63;;;9.10;77.70;;;;;;5137140;27;20188;-90
2023/11/21 04:55:30;;;;;;;7.00;1.90;;;9.10;77.30;;;;;;5136799;27;20733;-89
2023/11/21 04:57:59;;;;;;;3.15;1.60;;;9.10;77.30;;;;;;5136913;27;20261;-89
2023/11/21 05:00:26;;;;;;;4.60;1.50;;;9.10;77.50;;;;;;5136988;27;20209;-89
2023/11/21 05:02:53;;;;;;;7.53;1.70;;;9.10;77.50;;;;;;5136937;27;20223;-89
2023/11/21 05:05:20;;;;;;;9.20;3.28;;;9.20;78.00;;;;;;5136749;27;20266;-90
2023/11/21 05:07:48;;;;;;;7.55;3.28;;;9.10;78.20;;;;;;5136616;27;20260;-91
2023/11/21 05:10:16;;;;;;;4.82;2.08;;;9.10;78.20;;;;;;5136418;27;20192;-90
2023/11/21 05:12:43;;;;;;;4.57;1.75;;;9.10;78.20;;;;;;5136587;27;20241;-91
2023/11/21 05:15:15;;;;;;;5.35;3.45;;;9.10;78.60;;;;;;5136667;27;20574;-90
2023/11/21 05:17:43;;;;;;;6.07;2.00;;;9.10;78.50;;;;;;5136627;27;20226;-91
2023/11/21 05:20:13;;;;;;;4.03;1.85;;;9.10;78.60;;;;;;5136484;27;20219;-91
2023/11/21 05:22:40;;;;;;;6.72;2.30;;;9.10;78.80;;;;;;5136394;27;20188;-90
2023/11/21 05:25:08;;;;;;;5.13;2.47;;;9.10;78.90;;;;;;5136380;27;20280;-90
2023/11/21 05:27:36;;;;;;;3.95;1.73;;;9.10;79.20;;;;;;5136260;27;20188;-91
2023/11/21 05:30:05;;;;;;;3.70;2.03;;;9.00;79.80;;;;;;5136221;27;20605;-91
2023/11/21 05:32:33;;;;;;;3.20;1.55;;;9.00;80.10;;;;;;5136185;27;20194;-90
2023/11/21 05:35:00;;;;;;;5.57;2.20;;;9.00;80.40;;;;;;5135925;27;20762;-92
2023/11/21 05:37:28;;;;;;;3.55;1.67;;;9.00;79.90;;;;;;5136214;27;20219;-91
2023/11/21 05:39:56;;;;;;;4.93;2.05;;;9.00;79.80;;;;;;5135759;27;20669;-91
2023/11/21 05:42:23;;;;;;;7.18;2.03;;;9.00;79.50;;;;;;5135717;27;20185;-91
2023/11/21 05:44:52;;;;;;;3.42;1.80;;;9.10;79.80;;;;;;5135439;27;20192;-91
2023/11/21 05:47:21;;;;;;;5.05;2.13;;;9.10;79.80;;;;;;5135759;27;20611;-90
2023/11/21 05:49:51;;;;;;;4.00;2.00;;;9.10;79.50;;;;;;5136104;27;20196;-90
2023/11/21 05:52:18;;;;;;;3.78;1.55;;;9.10;79.10;;;;;;5135873;27;20622;-91
2023/11/21 05:54:45;;;;;;;3.42;1.80;;;9.20;78.10;;;;;;5135750;27;20241;-90
2023/11/21 05:57:12;;;;;;;5.50;2.22;;;9.20;77.90;;;;;;5135850;27;20557;-91
2023/11/21 05:59:40;;;;;;;3.88;2.13;;;9.10;77.60;;;;;;5135325;27;20247;-91
2023/11/21 06:02:07;;;;;;;3.90;1.60;;;9.10;77.20;;;;;;5135585;27;20191;-91
2023/11/21 06:04:34;;;;;;;7.68;1.33;;;9.00;77.30;;;;;;5135656;27;20209;-92
2023/11/21 06:07:04;;;;;;;3.90;1.77;;;9.10;77.00;;;;;;5135638;27;20282;-92
2023/11/21 06:09:31;;;;;;;5.80;1.23;;;9.10;77.00;;;;;;5135577;27;20188;-92
2023/11/21 06:11:58;;;;;;;7.55;1.80;;;9.10;76.70;;;;;;5135564;27;20256;-91
2023/11/21 06:14:25;;;;;;;3.00;1.63;;;9.10;77.00;;;;;;5135798;27;20529;-91
2023/11/21 06:16:52;;;;;;;4.10;1.45;;;9.10;76.70;;;;;;5135493;27;20191;-91
2023/11/21 06:19:19;;;;;;;2.67;1.30;;;9.10;76.60;;;;;;5134933;27;20208;-90
2023/11/21 06:21:46;;;;;;;3.58;1.52;;;9.10;76.80;;;;;;5135006;27;20699;-91
2023/11/21 06:24:15;;;;;;;6.45;2.67;;;9.10;76.60;;;;;;5135188;27;20238;-91
2023/11/21 06:26:42;;;;;;;2.33;1.00;;;9.20;76.60;;;;;;5134890;27;20223;-91
2023/11/21 06:29:09;;;;;;;7.20;1.30;;;9.20;76.50;;;;;;5134954;27;20283;-91
2023/11/21 06:31:36;;;;;;;3.50;1.10;;;9.20;76.70;;;;;;5134899;27;20188;-91
2023/11/21 06:34:03;;;;;;;3.30;1.45;;;9.20;76.90;;;;;;5131847;27;20691;-91
2023/11/21 06:36:30;;;;;;;2.65;0.98;;;9.20;76.70;;;;;;5134088;27;20191;-90
2023/11/21 06:38:57;;;;;;;2.25;0.88;;;9.20;76.60;;;;;;5134237;27;20299;-92
2023/11/21 06:41:26;;;;;;;3.08;1.10;;;9.20;76.70;;;;;;5134974;27;20295;-90
2023/11/21 06:43:53;;;;;;;3.50;1.27;;;9.20;76.80;;;;;;5133562;27;20239;-90
2023/11/21 06:46:20;;;;;;;3.47;1.20;;;9.20;76.50;;;;;;5133967;27;20216;-90
2023/11/21 06:48:49;;;;;;;3.03;1.30;;;9.20;76.40;;;;;;5133883;27;20188;-90
2023/11/21 06:51:16;;;;;;;3.85;1.50;;;9.20;76.70;;;;;;5134368;27;20185;-90
2023/11/21 06:53:46;;;;;;;3.63;1.98;;;9.20;76.70;;;;;;5133812;27;20215;-90
2023/11/21 06:56:19;;;;;;;5.40;1.55;;;9.20;76.70;;;;;;5134430;27;20593;-89
2023/11/21 06:58:47;;;;;;;4.18;1.40;;;9.20;76.60;;;;;;5134254;27;20223;-91
2023/11/21 07:01:15;;;;;;;3.65;1.45;;;9.20;76.30;;;;;;5134213;28;20683;-90
2023/11/21 07:03:45;;;;;;;3.72;1.83;;;9.20;76.40;;;;;;5130197;28;20192;-94
2023/11/21 07:06:12;;;;;;;2.67;1.40;;;9.20;76.80;;;;;;5134524;28;20203;-90
2023/11/21 07:08:39;;;;;;;3.85;1.67;;;9.20;76.30;;;;;;5133993;28;20215;-91
2023/11/21 07:11:07;;;;;;;4.75;1.90;;;9.20;76.50;;;;;;5134276;28;20220;-89
2023/11/21 07:13:34;;;;;;;4.18;1.98;;;9.20;76.80;;;;;;5133880;27;20227;-91
2023/11/21 07:16:03;;;;;;;7.50;3.38;;;9.20;77.10;;;;;;5133973;27;20229;-90
2023/11/21 07:18:30;;;;;;;4.15;1.60;;;9.20;76.60;;;;;;5133803;28;20184;-90
2023/11/21 07:20:58;;;;;;;8.98;4.40;;;9.30;76.90;;;;;;5133134;27;20515;-90
2023/11/21 07:23:25;;;;;;;3.30;2.03;;;9.30;77.30;;;;;;5133648;27;20180;-90
2023/11/21 07:25:52;;;;;;;7.63;2.30;;;9.30;77.10;;;;;;5133743;27;20275;-90
2023/11/21 07:28:19;;;;;;;6.63;1.75;;;9.40;77.60;;;;;;5133343;27;20231;-91
2023/11/21 07:30:46;;;;;;;2.53;1.15;;;9.40;77.50;;;;;;5133533;28;20629;-90
2023/11/21 07:33:15;;;;;;;5.03;1.13;;;9.40;76.70;;;;;;5133586;27;20180;-91
2023/11/21 07:35:42;;;;;;;3.03;1.60;;;9.40;75.60;;;;;;5133909;28;20196;-91
2023/11/21 07:38:08;;;;;;;7.72;2.00;;;9.40;75.90;;;;;;5134234;27;20223;-90
2023/11/21 07:40:36;;;;;;;4.88;2.20;;;9.40;76.20;;;;;;5133812;28;20295;-90
2023/11/21 07:43:03;;;;;;;5.22;1.80;;;9.40;76.40;;;;;;5134248;28;20184;-91
2023/11/21 07:45:30;;;;;;;4.18;1.58;;;9.50;76.40;;;;;;5133850;28;20674;-90
2023/11/21 07:47:57;;;;;;;2.65;1.00;;;9.50;76.70;;;;;;5133880;28;20180;-91
2023/11/21 07:50:26;;;;;;;4.07;1.17;;;9.50;76.80;;;;;;5131328;28;20607;-92
2023/11/21 07:52:54;;;;;;;2.85;1.55;;;9.60;76.60;;;;;;5133499;28;20185;-90
2023/11/21 07:55:21;;;;;;;2.40;1.15;;;9.60;76.50;;;;;;5133935;27;20188;-90
2023/11/21 07:57:48;;;;;;;3.45;1.35;;;9.60;76.10;;;;;;5133860;28;20226;-89
2023/11/21 08:00:15;;;;;;;4.40;1.83;;;9.60;75.90;;;;;;5133679;27;20248;-89
2023/11/21 08:02:45;;;;;;;4.40;1.70;;;9.70;76.00;;;;;;5131614;27;20192;-89
2023/11/21 08:05:12;;;;;;;3.58;1.35;;;9.70;75.70;;;;;;5133803;27;20659;-90
2023/11/21 08:07:41;;;;;;;3.92;1.35;;;9.70;75.50;;;;;;5137132;27;20222;-89
2023/11/21 08:10:10;;;;;;;7.00;2.10;;;9.80;75.40;;;;;;5137290;27;20234;-89
2023/11/21 08:12:38;;;;;;;4.10;1.73;;;9.80;75.10;;;;;;5137639;27;20241;-89
2023/11/21 08:15:07;;;;;;;5.10;3.25;;;9.80;75.50;;;;;;5137590;27;20636;-90
2023/11/21 08:17:35;;;;;;;7.70;3.60;;;9.80;75.60;;;;;;5137213;27;20233;-89
2023/11/21 08:20:03;;;;;;;3.85;2.22;;;9.80;75.60;;;;;;5133669;27;20255;-90
2023/11/21 08:22:30;;;;;;;5.45;3.25;;;9.80;75.30;;;;;;5136843;27;20237;-88
2023/11/21 08:24:59;;;;;;;4.45;2.55;;;9.80;74.50;;;;;;5136766;27;20182;-89
2023/11/21 08:27:26;;;;;;;6.50;2.85;;;9.80;73.80;;;;;;5136883;27;20188;-89
2023/11/21 08:29:53;;;;;;;3.60;2.47;;;9.70;74.10;;;;;;5136848;27;20211;-89
2023/11/21 08:32:20;;;;;;;4.15;2.03;;;9.80;74.80;;;;;;5136351;27;20188;-89
2023/11/21 08:34:50;;;;;;;5.10;1.85;;;9.80;75.20;;;;;;5136343;27;20215;-90
2023/11/21 08:37:17;;;;;;;3.25;1.20;;;9.80;75.60;;;;;;5136952;27;20192;-89
2023/11/21 08:39:45;;;;;;;5.57;1.85;;;9.90;75.60;;;;;;5136304;27;20204;-90
2023/11/21 08:42:14;;;;;;;2.97;1.30;;;9.90;75.00;;;;;;5115662;27;20228;-89
2023/11/21 08:44:41;;;;;;;2.67;1.02;;;10.00;74.00;;;;;;5136327;27;20212;-89
2023/11/21 08:47:08;;;;;;;2.30;0.80;;;10.00;74.40;;;;;;5136529;27;20254;-89
2023/11/21 08:49:35;;;;;;;2.30;0.80;;;10.10;73.70;;;;;;5136188;27;20228;-89
2023/11/21 08:52:02;;;;;;;1.80;0.70;;;10.20;72.80;;;;;;5136035;27;20188;-89
2023/11/21 08:54:32;;;;;;;2.00;0.70;;;10.20;72.30;;;;;;5124189;27;20193;-89
2023/11/21 08:56:59;;;;;;;2.20;1.27;;;10.30;72.20;;;;;;5135333;27;20573;-88
2023/11/21 08:59:27;;;;;;;2.05;0.80;;;10.30;72.30;;;;;;5135716;27;20212;-89
2023/11/21 09:01:54;;;;;;;2.58;1.15;;;10.30;72.30;;;;;;5136528;27;20220;-89
2023/11/21 09:04:21;;;;;;;2.03;0.70;;;10.30;71.80;;;;;;5136243;27;20223;-89
2023/11/21 09:06:48;;;;;;;2.50;1.10;;;10.30;71.30;;;;;;5136086;27;20303;-89
2023/11/21 09:09:15;;;;;;;6.70;1.45;;;10.30;71.30;;;;;;5135484;27;20698;-89
2023/11/21 09:11:44;;;;;;;2.63;1.75;;;10.30;70.80;;;;;;5136030;27;20256;-89
2023/11/21 09:14:12;;;;;;;3.10;1.48;;;10.40;71.00;;;;;;5138901;27;20188;-90
2023/11/21 09:16:41;;;;;;;3.22;1.10;;;10.40;70.60;;;;;;5155950;27;20222;-89
2023/11/21 09:19:08;;;;;;;2.15;1.00;;;10.40;70.70;;;;;;5156748;27;20192;-89
2023/11/21 09:21:35;;;;;;;3.50;0.95;;;10.40;69.70;;;;;;5156317;27;20302;-90
2023/11/21 09:24:03;;;;;;;2.90;1.25;;;10.40;70.20;;;;;;5157079;27;20191;-89
2023/11/21 09:26:30;;;;;;;3.63;1.40;;;10.40;70.30;;;;;;5156380;27;20271;-90
2023/11/21 09:28:57;;;;;;;2.80;1.05;;;10.40;70.70;;;;;;5155646;27;20240;-90
2023/11/21 09:31:24;;;;;;;3.22;0.90;;;10.40;70.30;;;;;;5156564;27;20202;-89
2023/11/21 09:33:52;;;;;;;2.13;0.95;;;10.40;70.10;;;;;;5156500;27;20187;-89
2023/11/21 09:36:26;;;;;;;2.40;0.87;;;10.40;70.20;;;;;;5156582;27;20274;-89
2023/11/21 09:38:55;;;;;;;2.80;1.00;;;10.50;70.40;;;;;;5156656;27;20429;-89
2023/11/21 09:41:30;;;;;;;4.85;1.25;;;10.50;70.60;;;;;;5155933;27;20211;-89
2023/11/21 09:44:00;;;;;;;2.10;1.00;;;10.50;70.80;;;;;;5156099;27;20266;-89
2023/11/21 09:46:29;;;;;;;3.28;0.90;;;10.60;70.60;;;;;;5156019;27;20220;-89
2023/11/21 09:49:01;;;;;;;3.10;1.00;;;10.70;70.80;;;;;;5156460;27;20190;-89
2023/11/21 09:51:33;;;;;;;3.60;1.17;;;10.70;70.70;;;;;;5156120;27;20540;-89
2023/11/21 09:54:06;;;;;;;2.80;1.00;;;10.80;71.70;;;;;;5156222;27;20832;-89
2023/11/21 09:56:34;;;;;;;3.28;0.98;;;10.90;73.30;;;;;;5156119;27;20432;-89
2023/11/21 09:59:07;;;;;;;2.30;1.07;;;11.00;71.80;;;;;;5155750;27;20645;-89
2023/11/21 10:01:37;;;;;;;2.65;1.17;;;11.10;71.70;;;;;;5155942;27;20465;-89
2023/11/21 10:04:11;;;;;;;2.23;1.07;;;11.10;70.90;;;;;;5155960;27;20184;-89
2023/11/21 10:06:39;;;;;;;2.20;1.03;;;11.20;70.80;;;;;;5155716;27;20420;-89
2023/11/21 10:09:11;;;;;;;3.30;1.53;;;11.20;71.20;;;;;;5155594;27;20435;-90
2023/11/21 10:11:42;;;;;;;1.87;0.90;;;11.20;72.30;;;;;;5155886;27;20440;-92
2023/11/21 10:14:12;;;;;;;4.10;1.00;;;11.20;72.80;;;;;;5155895;27;20425;-89
2023/11/21 10:16:40;;;;;;;2.10;1.03;;;11.30;72.90;;;;;;5155730;27;20770;-90
2023/11/21 10:19:10;;;;;;;2.23;0.87;;;11.30;72.40;;;;;;5155290;27;20512;-90
2023/11/21 10:21:39;;;;;;;3.00;1.00;;;11.30;71.70;;;;;;5154904;27;20517;-89
2023/11/21 10:24:07;;;;;;;2.47;0.73;;;11.30;72.20;;;;;;5155628;27;20469;-89
2023/11/21 10:26:35;;;;;;;2.60;0.80;;;11.30;71.80;;;;;;5155507;27;20918;-90
2023/11/21 10:29:03;;;;;;;2.20;0.80;;;11.30;70.20;;;;;;5154573;27;20468;-90
2023/11/21 10:31:31;;;;;;;4.77;1.47;;;11.30;70.30;;;;;;5155652;27;20436;-89
2023/11/21 10:34:16;;;;;;;2.80;0.90;;;11.30;70.30;;;;;;5155684;27;20776;-89
2023/11/21 10:36:44;;;;;;;2.75;1.20;;;11.40;70.30;;;;;;5155375;27;20468;-89
2023/11/21 10:39:17;;;;;;;3.80;1.00;;;11.40;69.90;;;;;;5155087;27;20728;-89
2023/11/21 10:41:45;;;;;;;2.90;1.13;;;11.50;70.10;;;;;;5155372;27;21058;-89
2023/11/21 10:44:14;;;;;;;2.40;1.10;;;11.50;69.90;;;;;;5155056;27;20433;-90
2023/11/21 10:46:42;;;;;;;3.73;1.00;;;11.50;70.10;;;;;;5154818;27;20513;-89
2023/11/21 10:49:12;;;;;;;2.70;1.00;;;11.50;68.30;;;;;;5155009;27;20423;-89
2023/11/21 10:51:44;;;;;;;2.50;0.80;;;11.50;68.00;;;;;;5155333;27;20432;-89
2023/11/21 10:54:12;;;;;;;1.90;0.80;;;11.50;67.40;;;;;;5155239;27;20413;-89
2023/11/21 10:56:42;;;;;;;2.80;1.10;;;11.50;67.50;;;;;;5155379;27;20436;-89
2023/11/21 10:59:14;;;;;;;2.90;1.23;;;11.50;67.30;;;;;;5155322;27;20528;-89
2023/11/21 11:01:43;;;;;;;2.53;0.90;;;11.50;66.60;;;;;;5155227;27;20552;-92
2023/11/21 11:04:14;;;;;;;1.80;0.80;;;11.50;66.60;;;;;;5155265;27;20528;-91
2023/11/21 11:06:44;;;;;;;1.90;0.87;;;11.50;65.00;;;;;;5154968;27;20497;-92
2023/11/21 11:09:14;;;;;;;2.10;0.97;;;11.50;65.80;;;;;;5155258;27;20476;-92
2023/11/21 11:11:43;;;;;;;2.50;0.70;;;11.50;66.00;;;;;;5155266;27;20434;-92
2023/11/21 11:14:16;;;;;;;2.97;0.77;;;11.50;65.60;;;;;;5155673;27;20437;-91
2023/11/21 11:16:43;;;;;;;1.80;0.70;;;11.50;65.30;;;;;;5155750;27;20485;-92
2023/11/21 11:19:12;;;;;;;2.07;0.83;;;11.50;65.20;;;;;;5155409;27;20516;-92
2023/11/21 11:21:53;;;;;;;1.70;0.70;;;11.60;64.80;;;;;;5155291;27;20464;-91
2023/11/21 11:24:41;;;;;;;3.30;1.30;;;11.60;64.20;;;;;;5155097;27;20453;-92
2023/11/21 11:27:16;;;;;;;2.10;1.30;;;11.70;64.40;;;;;;5155134;27;20531;-92
2023/11/21 11:29:52;;;;;;;2.87;0.90;;;11.90;65.20;;;;;;5155182;27;20516;-91
2023/11/21 11:32:39;;;;;;;2.00;1.00;;;12.00;66.50;;;;;;5155227;27;20810;-92
2023/11/21 11:35:14;;;;;;;2.20;0.87;;;12.30;65.80;;;;;;5155191;27;20474;-91
2023/11/21 11:37:43;;;;;;;2.60;1.40;;;12.60;64.90;;;;;;5155052;27;20831;-92
2023/11/21 11:40:12;;;;;;;2.10;0.80;;;12.90;63.80;;;;;;5155661;27;20471;-92
2023/11/21 11:42:40;;;;;;;3.13;1.40;;;13.10;62.50;;;;;;5165052;27;20837;-92
2023/11/21 11:45:20;;;;;;;3.97;0.90;;;13.40;61.40;;;;;;5159064;27;20484;-92
2023/11/21 11:47:49;;;;;;;2.13;0.70;;;13.60;59.70;;;;;;5162317;27;20424;-91
2023/11/21 11:50:19;;;;;;;2.90;1.20;;;13.60;59.30;;;;;;5158823;27;20485;-91
2023/11/21 11:52:50;;;;;;;2.83;1.03;;;13.50;59.10;;;;;;5158646;27;20421;-92
2023/11/21 11:55:19;;;;;;;4.70;1.20;;;13.40;59.00;;;;;;5158393;27;20420;-91
2023/11/21 11:57:47;;;;;;;2.13;0.70;;;13.30;59.30;;;;;;5158783;27;20781;-91
2023/11/21 12:00:20;;;;;;;2.40;0.77;;;13.20;59.10;;;;;;5158514;27;20472;-91
2023/11/21 12:02:49;;;;;;;2.00;0.80;;;13.20;59.10;;;;;;5158689;27;20920;-91
2023/11/21 12:05:19;;;;;;;2.27;1.23;;;13.10;59.10;;;;;;5158786;27;20460;-91
2023/11/21 12:07:49;;;;;;;2.40;1.00;;;13.00;59.60;;;;;;5158421;27;20469;-92
2023/11/21 12:10:18;;;;;;;4.00;1.10;;;12.90;59.60;;;;;;5158630;27;20440;-91
2023/11/21 12:12:47;;;;;;;2.23;1.20;;;12.70;59.10;;;;;;5158534;27;20444;-91
2023/11/21 12:15:14;;;;;;;1.93;0.83;;;12.60;59.70;;;;;;5158426;27;20487;-91
2023/11/21 12:17:44;;;;;;;2.73;1.30;;;12.50;60.00;;;;;;5158321;27;20433;-91
2023/11/21 12:20:15;;;;;;;2.23;1.07;;;12.40;60.80;;;;;;5157874;27;20516;-91
2023/11/21 12:22:48;;;;;;;3.47;1.00;;;12.30;61.10;;;;;;5158244;27;20469;-91
2023/11/21 12:25:18;;;;;;;2.53;0.80;;;12.30;61.20;;;;;;5157842;27;20912;-90
2023/11/21 12:27:46;;;;;;;2.57;0.90;;;12.20;61.40;;;;;;5157781;27;20413;-91
2023/11/21 12:30:15;;;;;;;2.10;1.00;;;12.20;61.40;;;;;;5158211;27;20436;-91
2023/11/21 12:32:43;;;;;;;2.40;0.90;;;12.20;61.60;;;;;;5158071;27;20501;-90
2023/11/21 12:35:11;;;;;;;2.20;0.90;;;12.20;62.20;;;;;;5157987;27;20525;-91
2023/11/21 12:37:39;;;;;;;2.40;1.00;;;12.20;62.60;;;;;;5157900;27;20435;-90
2023/11/21 12:40:11;;;;;;;5.70;1.10;;;12.10;63.20;;;;;;5157398;27;20442;-91
2023/11/21 12:42:41;;;;;;;1.90;1.00;;;12.20;62.70;;;;;;5157830;27;20473;-92
2023/11/21 12:45:14;;;;;;;2.40;1.30;;;12.20;63.50;;;;;;5157603;27;20506;-91
2023/11/21 12:47:42;;;;;;;3.30;1.17;;;12.30;64.10;;;;;;5157894;27;20461;-90
2023/11/21 12:50:14;;;;;;;2.60;1.10;;;12.40;63.50;;;;;;5157287;27;20975;-91
2023/11/21 12:52:43;;;;;;;4.40;1.40;;;12.40;63.10;;;;;;5157148;27;20437;-92
2023/11/21 12:55:14;;;;;;;3.20;1.80;;;12.40;62.60;;;;;;5157760;27;20500;-91
2023/11/21 12:57:44;;;;;;;2.10;0.80;;;12.40;62.20;;;;;;5157724;27;20421;-91
2023/11/21 13:00:24;;;;;;;2.00;0.83;;;12.40;62.40;;;;;;5157126;27;20994;-91